sensor_id;sensor_type;location;lat;lon;timestamp;P1;durP1;ratioP1;P2;durP2;ratioP2
60257;SDS011;46115;44.484;11.314;2022-08-05T00:03:34;5.93;;;2.00;;
60257;SDS011;46115;44.484;11.314;2022-08-05T00:07:37;5.43;;;2.10;;
60257;SDS011;46115;44.484;11.314;2022-08-05T00:11:39;2.60;;;2.10;;
60257;SDS011;46115;44.484;11.314;2022-08-05T00:15:43;4.78;;;2.17;;
60257;SDS011;46115;44.484;11.314;2022-08-05T00:19:45;3.38;;;1.90;;
60257;SDS011;46115;44.484;11.314;2022-08-05T00:23:48;6.15;;;2.00;;
60257;SDS011;46115;44.484;11.314;2022-08-05T00:27:51;3.53;;;2.10;;
60257;SDS011;46115;44.484;11.314;2022-08-05T00:31:54;5.45;;;2.10;;
60257;SDS011;46115;44.484;11.314;2022-08-05T00:35:57;2.17;;;1.70;;
60257;SDS011;46115;44.484;11.314;2022-08-05T00:39:59;3.90;;;1.88;;
60257;SDS011;46115;44.484;11.314;2022-08-05T00:44:02;3.80;;;2.05;;
60257;SDS011;46115;44.484;11.314;2022-08-05T00:48:09;4.43;;;1.95;;
60257;SDS011;46115;44.484;11.314;2022-08-05T00:52:13;2.38;;;2.10;;
60257;SDS011;46115;44.484;11.314;2022-08-05T00:56:15;2.38;;;2.10;;
60257;SDS011;46115;44.484;11.314;2022-08-05T01:00:18;4.22;;;1.98;;
60257;SDS011;46115;44.484;11.314;2022-08-05T01:04:22;4.35;;;2.22;;
60257;SDS011;46115;44.484;11.314;2022-08-05T01:08:25;4.68;;;2.03;;
60257;SDS011;46115;44.484;11.314;2022-08-05T01:12:27;3.20;;;2.08;;
60257;SDS011;46115;44.484;11.314;2022-08-05T01:16:32;2.25;;;2.03;;
60257;SDS011;46115;44.484;11.314;2022-08-05T01:20:50;3.22;;;2.20;;
60257;SDS011;46115;44.484;11.314;2022-08-05T01:25:02;2.58;;;2.15;;
60257;SDS011;46115;44.484;11.314;2022-08-05T01:29:23;2.47;;;2.17;;
60257;SDS011;46115;44.484;11.314;2022-08-05T01:33:31;2.85;;;2.10;;
60257;SDS011;46115;44.484;11.314;2022-08-05T01:37:38;3.75;;;2.20;;
60257;SDS011;46115;44.484;11.314;2022-08-05T01:41:44;2.72;;;2.20;;
60257;SDS011;46115;44.484;11.314;2022-08-05T01:45:51;5.22;;;2.30;;
60257;SDS011;46115;44.484;11.314;2022-08-05T01:49:56;3.05;;;2.20;;
60257;SDS011;46115;44.484;11.314;2022-08-05T01:54:00;4.63;;;2.10;;
60257;SDS011;46115;44.484;11.314;2022-08-05T01:58:06;2.67;;;2.10;;
60257;SDS011;46115;44.484;11.314;2022-08-05T02:02:13;3.58;;;2.13;;
60257;SDS011;46115;44.484;11.314;2022-08-05T02:06:17;4.20;;;2.53;;
60257;SDS011;46115;44.484;11.314;2022-08-05T02:10:20;2.38;;;1.83;;
60257;SDS011;46115;44.484;11.314;2022-08-05T02:14:24;3.00;;;2.10;;
60257;SDS011;46115;44.484;11.314;2022-08-05T02:18:31;2.58;;;2.25;;
60257;SDS011;46115;44.484;11.314;2022-08-05T02:22:41;3.35;;;2.00;;
60257;SDS011;46115;44.484;11.314;2022-08-05T02:26:46;3.83;;;1.90;;
60257;SDS011;46115;44.484;11.314;2022-08-05T02:30:52;3.90;;;2.22;;
60257;SDS011;46115;44.484;11.314;2022-08-05T02:35:00;3.47;;;2.22;;
60257;SDS011;46115;44.484;11.314;2022-08-05T02:39:06;4.80;;;2.10;;
60257;SDS011;46115;44.484;11.314;2022-08-05T02:43:13;4.13;;;2.20;;
60257;SDS011;46115;44.484;11.314;2022-08-05T02:47:17;3.67;;;2.33;;
60257;SDS011;46115;44.484;11.314;2022-08-05T02:51:23;3.22;;;2.20;;
60257;SDS011;46115;44.484;11.314;2022-08-05T02:55:28;2.45;;;2.20;;
60257;SDS011;46115;44.484;11.314;2022-08-05T02:59:32;4.20;;;2.20;;
60257;SDS011;46115;44.484;11.314;2022-08-05T03:03:36;2.85;;;2.15;;
60257;SDS011;46115;44.484;11.314;2022-08-05T03:07:45;2.33;;;2.13;;
60257;SDS011;46115;44.484;11.314;2022-08-05T03:11:48;3.47;;;2.30;;
60257;SDS011;46115;44.484;11.314;2022-08-05T03:15:51;2.85;;;2.20;;
60257;SDS011;46115;44.484;11.314;2022-08-05T03:19:53;4.18;;;2.40;;
60257;SDS011;46115;44.484;11.314;2022-08-05T03:23:57;3.75;;;2.10;;
60257;SDS011;46115;44.484;11.314;2022-08-05T03:28:00;2.40;;;2.20;;
60257;SDS011;46115;44.484;11.314;2022-08-05T03:32:04;2.40;;;2.20;;
60257;SDS011;46115;44.484;11.314;2022-08-05T03:36:10;5.07;;;2.60;;
60257;SDS011;46115;44.484;11.314;2022-08-05T03:40:14;2.72;;;2.17;;
60257;SDS011;46115;44.484;11.314;2022-08-05T03:44:17;2.78;;;2.20;;
60257;SDS011;46115;44.484;11.314;2022-08-05T03:48:19;2.40;;;2.08;;
60257;SDS011;46115;44.484;11.314;2022-08-05T03:52:23;3.65;;;2.10;;
60257;SDS011;46115;44.484;11.314;2022-08-05T03:56:32;2.40;;;2.17;;
60257;SDS011;46115;44.484;11.314;2022-08-05T04:04:45;3.35;;;2.28;;
60257;SDS011;46115;44.484;11.314;2022-08-05T04:08:48;3.30;;;2.15;;
60257;SDS011;46115;44.484;11.314;2022-08-05T04:12:53;4.57;;;2.30;;
60257;SDS011;46115;44.484;11.314;2022-08-05T04:16:56;3.95;;;2.30;;
60257;SDS011;46115;44.484;11.314;2022-08-05T04:20:59;2.70;;;2.03;;
60257;SDS011;46115;44.484;11.314;2022-08-05T04:25:02;5.82;;;2.60;;
60257;SDS011;46115;44.484;11.314;2022-08-05T04:29:09;5.18;;;2.30;;
60257;SDS011;46115;44.484;11.314;2022-08-05T04:33:12;3.63;;;2.45;;
60257;SDS011;46115;44.484;11.314;2022-08-05T04:37:15;8.90;;;2.40;;
60257;SDS011;46115;44.484;11.314;2022-08-05T04:41:17;2.83;;;2.40;;
60257;SDS011;46115;44.484;11.314;2022-08-05T04:45:21;3.58;;;2.20;;
60257;SDS011;46115;44.484;11.314;2022-08-05T04:49:25;2.53;;;2.30;;
60257;SDS011;46115;44.484;11.314;2022-08-05T04:53:28;4.15;;;2.50;;
60257;SDS011;46115;44.484;11.314;2022-08-05T04:57:30;4.53;;;2.53;;
60257;SDS011;46115;44.484;11.314;2022-08-05T05:01:34;6.53;;;2.22;;
60257;SDS011;46115;44.484;11.314;2022-08-05T05:05:36;2.40;;;2.20;;
60257;SDS011;46115;44.484;11.314;2022-08-05T05:09:39;4.32;;;2.45;;
60257;SDS011;46115;44.484;11.314;2022-08-05T05:13:41;2.65;;;2.30;;
60257;SDS011;46115;44.484;11.314;2022-08-05T05:17:48;2.30;;;2.10;;
60257;SDS011;46115;44.484;11.314;2022-08-05T05:21:50;2.83;;;2.20;;
60257;SDS011;46115;44.484;11.314;2022-08-05T05:25:53;2.67;;;2.00;;
60257;SDS011;46115;44.484;11.314;2022-08-05T05:29:55;3.88;;;2.20;;
60257;SDS011;46115;44.484;11.314;2022-08-05T05:33:59;2.33;;;2.08;;
60257;SDS011;46115;44.484;11.314;2022-08-05T05:38:02;3.85;;;2.15;;
60257;SDS011;46115;44.484;11.314;2022-08-05T05:42:06;3.90;;;2.00;;
60257;SDS011;46115;44.484;11.314;2022-08-05T05:46:08;3.42;;;1.73;;
60257;SDS011;46115;44.484;11.314;2022-08-05T05:50:13;3.95;;;2.00;;
60257;SDS011;46115;44.484;11.314;2022-08-05T05:54:17;6.03;;;2.00;;
60257;SDS011;46115;44.484;11.314;2022-08-05T05:58:19;5.13;;;2.35;;
60257;SDS011;46115;44.484;11.314;2022-08-05T06:02:22;2.83;;;2.10;;
60257;SDS011;46115;44.484;11.314;2022-08-05T06:06:25;4.68;;;1.90;;
60257;SDS011;46115;44.484;11.314;2022-08-05T06:10:28;3.35;;;2.20;;
60257;SDS011;46115;44.484;11.314;2022-08-05T06:14:31;2.65;;;2.10;;
60257;SDS011;46115;44.484;11.314;2022-08-05T06:18:34;4.25;;;2.10;;
60257;SDS011;46115;44.484;11.314;2022-08-05T06:22:38;6.22;;;2.15;;
60257;SDS011;46115;44.484;11.314;2022-08-05T06:26:41;4.30;;;2.05;;
60257;SDS011;46115;44.484;11.314;2022-08-05T06:30:44;3.05;;;2.00;;
60257;SDS011;46115;44.484;11.314;2022-08-05T06:34:46;7.20;;;2.13;;
60257;SDS011;46115;44.484;11.314;2022-08-05T06:38:50;4.85;;;1.90;;
60257;SDS011;46115;44.484;11.314;2022-08-05T06:42:54;6.22;;;2.03;;
60257;SDS011;46115;44.484;11.314;2022-08-05T06:46:56;3.00;;;2.00;;
60257;SDS011;46115;44.484;11.314;2022-08-05T06:50:59;2.78;;;1.80;;
60257;SDS011;46115;44.484;11.314;2022-08-05T06:55:03;3.15;;;1.88;;
60257;SDS011;46115;44.484;11.314;2022-08-05T06:59:06;3.88;;;1.70;;
60257;SDS011;46115;44.484;11.314;2022-08-05T07:03:09;2.15;;;1.58;;
60257;SDS011;46115;44.484;11.314;2022-08-05T07:07:12;3.95;;;1.77;;
60257;SDS011;46115;44.484;11.314;2022-08-05T07:11:16;2.08;;;1.60;;
60257;SDS011;46115;44.484;11.314;2022-08-05T07:15:18;4.22;;;1.52;;
60257;SDS011;46115;44.484;11.314;2022-08-05T07:19:38;4.68;;;1.70;;
60257;SDS011;46115;44.484;11.314;2022-08-05T07:23:41;5.70;;;2.10;;
60257;SDS011;46115;44.484;11.314;2022-08-05T07:27:45;2.65;;;1.30;;
60257;SDS011;46115;44.484;11.314;2022-08-05T07:31:47;4.50;;;1.95;;
60257;SDS011;46115;44.484;11.314;2022-08-05T07:35:50;2.60;;;1.38;;
60257;SDS011;46115;44.484;11.314;2022-08-05T07:39:52;3.53;;;1.40;;
60257;SDS011;46115;44.484;11.314;2022-08-05T07:43:57;2.67;;;1.40;;
60257;SDS011;46115;44.484;11.314;2022-08-05T07:48:00;3.33;;;1.70;;
60257;SDS011;46115;44.484;11.314;2022-08-05T07:52:03;5.97;;;1.70;;
60257;SDS011;46115;44.484;11.314;2022-08-05T07:56:05;2.53;;;1.80;;
60257;SDS011;46115;44.484;11.314;2022-08-05T08:00:10;5.40;;;2.03;;
60257;SDS011;46115;44.484;11.314;2022-08-05T08:04:14;6.20;;;2.10;;
60257;SDS011;46115;44.484;11.314;2022-08-05T08:08:17;3.50;;;2.28;;
60257;SDS011;46115;44.484;11.314;2022-08-05T08:12:20;4.03;;;2.30;;
60257;SDS011;46115;44.484;11.314;2022-08-05T08:16:26;3.35;;;2.50;;
60257;SDS011;46115;44.484;11.314;2022-08-05T08:20:28;6.15;;;2.40;;
60257;SDS011;46115;44.484;11.314;2022-08-05T08:24:31;4.57;;;2.50;;
60257;SDS011;46115;44.484;11.314;2022-08-05T08:28:34;4.43;;;2.83;;
60257;SDS011;46115;44.484;11.314;2022-08-05T08:32:38;4.28;;;2.58;;
60257;SDS011;46115;44.484;11.314;2022-08-05T08:36:44;4.55;;;2.40;;
60257;SDS011;46115;44.484;11.314;2022-08-05T08:40:46;4.25;;;2.90;;
60257;SDS011;46115;44.484;11.314;2022-08-05T08:44:49;6.03;;;2.78;;
60257;SDS011;46115;44.484;11.314;2022-08-05T08:48:55;4.18;;;2.70;;
60257;SDS011;46115;44.484;11.314;2022-08-05T08:53:00;4.20;;;3.53;;
60257;SDS011;46115;44.484;11.314;2022-08-05T08:57:05;4.78;;;3.60;;
60257;SDS011;46115;44.484;11.314;2022-08-05T09:01:08;5.95;;;3.30;;
60257;SDS011;46115;44.484;11.314;2022-08-05T09:05:13;4.13;;;3.30;;
60257;SDS011;46115;44.484;11.314;2022-08-05T09:09:15;5.70;;;3.83;;
60257;SDS011;46115;44.484;11.314;2022-08-05T09:13:20;6.53;;;4.10;;
60257;SDS011;46115;44.484;11.314;2022-08-05T09:17:23;5.07;;;4.07;;
60257;SDS011;46115;44.484;11.314;2022-08-05T09:21:27;4.32;;;3.50;;
60257;SDS011;46115;44.484;11.314;2022-08-05T09:25:30;5.43;;;2.55;;
60257;SDS011;46115;44.484;11.314;2022-08-05T09:29:37;4.93;;;2.10;;
60257;SDS011;46115;44.484;11.314;2022-08-05T09:33:45;11.23;;;2.22;;
60257;SDS011;46115;44.484;11.314;2022-08-05T09:37:51;4.05;;;1.70;;
60257;SDS011;46115;44.484;11.314;2022-08-05T09:41:55;4.07;;;1.85;;
60257;SDS011;46115;44.484;11.314;2022-08-05T09:45:59;6.43;;;1.80;;
60257;SDS011;46115;44.484;11.314;2022-08-05T09:50:02;6.38;;;2.00;;
60257;SDS011;46115;44.484;11.314;2022-08-05T09:54:06;3.85;;;2.10;;
60257;SDS011;46115;44.484;11.314;2022-08-05T09:58:11;4.03;;;2.00;;
60257;SDS011;46115;44.484;11.314;2022-08-05T10:02:21;5.18;;;1.90;;
60257;SDS011;46115;44.484;11.314;2022-08-05T10:06:31;3.92;;;1.90;;
60257;SDS011;46115;44.484;11.314;2022-08-05T10:10:37;2.25;;;1.80;;
60257;SDS011;46115;44.484;11.314;2022-08-05T10:14:46;8.32;;;1.80;;
60257;SDS011;46115;44.484;11.314;2022-08-05T10:18:49;2.30;;;1.70;;
60257;SDS011;46115;44.484;11.314;2022-08-05T10:22:52;2.92;;;1.80;;
60257;SDS011;46115;44.484;11.314;2022-08-05T10:26:56;4.10;;;1.70;;
60257;SDS011;46115;44.484;11.314;2022-08-05T10:31:00;2.25;;;1.98;;
60257;SDS011;46115;44.484;11.314;2022-08-05T10:35:03;4.22;;;1.98;;
60257;SDS011;46115;44.484;11.314;2022-08-05T10:39:07;4.28;;;1.60;;
60257;SDS011;46115;44.484;11.314;2022-08-05T10:43:32;7.90;;;1.77;;
60257;SDS011;46115;44.484;11.314;2022-08-05T10:47:41;4.10;;;1.80;;
60257;SDS011;46115;44.484;11.314;2022-08-05T10:51:45;3.88;;;1.90;;
60257;SDS011;46115;44.484;11.314;2022-08-05T10:56:00;3.60;;;1.90;;
60257;SDS011;46115;44.484;11.314;2022-08-05T11:00:09;3.75;;;1.80;;
60257;SDS011;46115;44.484;11.314;2022-08-05T11:04:14;7.47;;;1.90;;
60257;SDS011;46115;44.484;11.314;2022-08-05T11:08:17;3.03;;;1.80;;
60257;SDS011;46115;44.484;11.314;2022-08-05T11:16:48;4.65;;;1.85;;
60257;SDS011;46115;44.484;11.314;2022-08-05T11:21:29;4.30;;;2.03;;
60257;SDS011;46115;44.484;11.314;2022-08-05T11:25:33;5.88;;;1.70;;
60257;SDS011;46115;44.484;11.314;2022-08-05T11:29:38;7.60;;;1.90;;
60257;SDS011;46115;44.484;11.314;2022-08-05T11:33:52;5.57;;;1.70;;
60257;SDS011;46115;44.484;11.314;2022-08-05T11:38:00;3.47;;;1.63;;
60257;SDS011;46115;44.484;11.314;2022-08-05T11:42:02;2.15;;;1.92;;
60257;SDS011;46115;44.484;11.314;2022-08-05T11:46:06;5.15;;;1.80;;
60257;SDS011;46115;44.484;11.314;2022-08-05T11:50:09;5.82;;;1.92;;
60257;SDS011;46115;44.484;11.314;2022-08-05T11:54:13;3.40;;;1.90;;
60257;SDS011;46115;44.484;11.314;2022-08-05T11:58:28;2.20;;;1.80;;
60257;SDS011;46115;44.484;11.314;2022-08-05T12:02:31;5.05;;;1.92;;
60257;SDS011;46115;44.484;11.314;2022-08-05T12:06:35;2.35;;;1.70;;
60257;SDS011;46115;44.484;11.314;2022-08-05T12:10:38;7.57;;;1.90;;
60257;SDS011;46115;44.484;11.314;2022-08-05T12:14:43;3.80;;;1.80;;
60257;SDS011;46115;44.484;11.314;2022-08-05T12:18:45;6.95;;;1.90;;
60257;SDS011;46115;44.484;11.314;2022-08-05T12:22:49;3.35;;;1.80;;
60257;SDS011;46115;44.484;11.314;2022-08-05T12:26:52;4.78;;;1.83;;
60257;SDS011;46115;44.484;11.314;2022-08-05T12:30:56;5.13;;;1.90;;
60257;SDS011;46115;44.484;11.314;2022-08-05T12:34:59;5.03;;;1.70;;
60257;SDS011;46115;44.484;11.314;2022-08-05T12:39:04;4.82;;;1.88;;
60257;SDS011;46115;44.484;11.314;2022-08-05T12:43:07;5.43;;;1.80;;
60257;SDS011;46115;44.484;11.314;2022-08-05T12:47:09;2.80;;;1.70;;
60257;SDS011;46115;44.484;11.314;2022-08-05T12:51:13;3.58;;;1.83;;
60257;SDS011;46115;44.484;11.314;2022-08-05T12:55:19;3.60;;;1.85;;
60257;SDS011;46115;44.484;11.314;2022-08-05T12:59:23;4.38;;;1.77;;
60257;SDS011;46115;44.484;11.314;2022-08-05T13:03:27;12.48;;;2.30;;
60257;SDS011;46115;44.484;11.314;2022-08-05T13:07:29;3.92;;;1.80;;
60257;SDS011;46115;44.484;11.314;2022-08-05T13:11:38;3.67;;;1.75;;
60257;SDS011;46115;44.484;11.314;2022-08-05T13:15:42;3.63;;;1.80;;
60257;SDS011;46115;44.484;11.314;2022-08-05T13:19:59;3.65;;;1.70;;
60257;SDS011;46115;44.484;11.314;2022-08-05T13:24:04;5.47;;;1.88;;
60257;SDS011;46115;44.484;11.314;2022-08-05T13:28:08;4.47;;;1.80;;
60257;SDS011;46115;44.484;11.314;2022-08-05T13:32:12;6.13;;;1.95;;
60257;SDS011;46115;44.484;11.314;2022-08-05T13:36:14;3.22;;;1.58;;
60257;SDS011;46115;44.484;11.314;2022-08-05T13:40:17;4.45;;;1.70;;
60257;SDS011;46115;44.484;11.314;2022-08-05T13:44:21;4.18;;;1.92;;
60257;SDS011;46115;44.484;11.314;2022-08-05T13:48:23;3.60;;;1.73;;
60257;SDS011;46115;44.484;11.314;2022-08-05T13:52:26;3.70;;;2.00;;
60257;SDS011;46115;44.484;11.314;2022-08-05T13:56:29;4.78;;;1.90;;
60257;SDS011;46115;44.484;11.314;2022-08-05T14:00:33;3.15;;;1.80;;
60257;SDS011;46115;44.484;11.314;2022-08-05T14:04:36;3.55;;;1.83;;
60257;SDS011;46115;44.484;11.314;2022-08-05T14:08:57;3.30;;;1.85;;
60257;SDS011;46115;44.484;11.314;2022-08-05T14:13:01;7.15;;;1.70;;
60257;SDS011;46115;44.484;11.314;2022-08-05T14:17:05;3.90;;;1.67;;
60257;SDS011;46115;44.484;11.314;2022-08-05T14:21:07;6.85;;;1.90;;
60257;SDS011;46115;44.484;11.314;2022-08-05T14:25:09;2.97;;;1.58;;
60257;SDS011;46115;44.484;11.314;2022-08-05T14:29:14;4.88;;;1.80;;
60257;SDS011;46115;44.484;11.314;2022-08-05T14:33:18;5.15;;;1.70;;
60257;SDS011;46115;44.484;11.314;2022-08-05T14:37:21;2.60;;;1.70;;
60257;SDS011;46115;44.484;11.314;2022-08-05T14:41:23;3.63;;;1.67;;
60257;SDS011;46115;44.484;11.314;2022-08-05T14:45:26;7.60;;;1.80;;
60257;SDS011;46115;44.484;11.314;2022-08-05T14:49:29;3.75;;;1.90;;
60257;SDS011;46115;44.484;11.314;2022-08-05T14:53:32;5.93;;;2.00;;
60257;SDS011;46115;44.484;11.314;2022-08-05T14:57:34;6.10;;;2.00;;
60257;SDS011;46115;44.484;11.314;2022-08-05T15:01:37;7.15;;;1.83;;
60257;SDS011;46115;44.484;11.314;2022-08-05T15:05:42;4.88;;;1.80;;
60257;SDS011;46115;44.484;11.314;2022-08-05T15:09:44;2.97;;;1.73;;
60257;SDS011;46115;44.484;11.314;2022-08-05T15:13:47;3.90;;;1.88;;
60257;SDS011;46115;44.484;11.314;2022-08-05T15:17:49;8.05;;;2.00;;
60257;SDS011;46115;44.484;11.314;2022-08-05T15:21:53;2.65;;;1.90;;
60257;SDS011;46115;44.484;11.314;2022-08-05T15:25:56;4.47;;;1.90;;
60257;SDS011;46115;44.484;11.314;2022-08-05T15:29:58;7.30;;;2.00;;
60257;SDS011;46115;44.484;11.314;2022-08-05T15:34:01;6.18;;;1.70;;
60257;SDS011;46115;44.484;11.314;2022-08-05T15:38:05;3.95;;;1.77;;
60257;SDS011;46115;44.484;11.314;2022-08-05T15:42:07;4.90;;;1.85;;
60257;SDS011;46115;44.484;11.314;2022-08-05T15:46:10;4.63;;;1.90;;
60257;SDS011;46115;44.484;11.314;2022-08-05T15:50:13;4.55;;;2.00;;
60257;SDS011;46115;44.484;11.314;2022-08-05T15:54:17;5.07;;;1.83;;
60257;SDS011;46115;44.484;11.314;2022-08-05T15:58:20;4.68;;;1.73;;
60257;SDS011;46115;44.484;11.314;2022-08-05T16:02:22;4.03;;;1.80;;
60257;SDS011;46115;44.484;11.314;2022-08-05T16:06:24;3.90;;;1.70;;
60257;SDS011;46115;44.484;11.314;2022-08-05T16:10:28;4.47;;;1.58;;
60257;SDS011;46115;44.484;11.314;2022-08-05T16:14:31;10.45;;;1.98;;
60257;SDS011;46115;44.484;11.314;2022-08-05T16:18:33;4.57;;;1.80;;
60257;SDS011;46115;44.484;11.314;2022-08-05T16:22:37;7.47;;;1.70;;
60257;SDS011;46115;44.484;11.314;2022-08-05T16:26:51;3.53;;;2.00;;
60257;SDS011;46115;44.484;11.314;2022-08-05T16:30:54;2.38;;;1.83;;
60257;SDS011;46115;44.484;11.314;2022-08-05T16:34:56;4.85;;;1.80;;
60257;SDS011;46115;44.484;11.314;2022-08-05T16:38:59;5.82;;;1.70;;
60257;SDS011;46115;44.484;11.314;2022-08-05T16:53:48;4.22;;;1.60;;
60257;SDS011;46115;44.484;11.314;2022-08-05T16:57:51;4.70;;;1.50;;
60257;SDS011;46115;44.484;11.314;2022-08-05T17:01:53;5.82;;;1.55;;
60257;SDS011;46115;44.484;11.314;2022-08-05T17:05:56;4.30;;;1.30;;
60257;SDS011;46115;44.484;11.314;2022-08-05T17:10:01;5.85;;;1.45;;
60257;SDS011;46115;44.484;11.314;2022-08-05T17:14:04;5.57;;;1.58;;
60257;SDS011;46115;44.484;11.314;2022-08-05T17:18:06;4.40;;;1.35;;
60257;SDS011;46115;44.484;11.314;2022-08-05T17:22:09;3.15;;;1.40;;
60257;SDS011;46115;44.484;11.314;2022-08-05T17:26:13;3.28;;;1.50;;
60257;SDS011;46115;44.484;11.314;2022-08-05T17:30:15;2.50;;;1.40;;
60257;SDS011;46115;44.484;11.314;2022-08-05T17:34:18;5.90;;;1.50;;
60257;SDS011;46115;44.484;11.314;2022-08-05T17:38:21;4.18;;;1.67;;
60257;SDS011;46115;44.484;11.314;2022-08-05T17:42:25;7.88;;;1.90;;
60257;SDS011;46115;44.484;11.314;2022-08-05T17:46:29;6.43;;;1.73;;
60257;SDS011;46115;44.484;11.314;2022-08-05T17:50:31;5.57;;;1.75;;
60257;SDS011;46115;44.484;11.314;2022-08-05T17:54:34;5.55;;;1.98;;
60257;SDS011;46115;44.484;11.314;2022-08-05T17:58:38;2.47;;;1.80;;
60257;SDS011;46115;44.484;11.314;2022-08-05T18:02:42;5.57;;;1.80;;
60257;SDS011;46115;44.484;11.314;2022-08-05T18:06:46;6.25;;;2.15;;
60257;SDS011;46115;44.484;11.314;2022-08-05T18:10:48;7.28;;;2.25;;
60257;SDS011;46115;44.484;11.314;2022-08-05T18:14:52;4.35;;;2.00;;
60257;SDS011;46115;44.484;11.314;2022-08-05T18:18:55;7.95;;;2.20;;
60257;SDS011;46115;44.484;11.314;2022-08-05T18:22:57;6.70;;;2.10;;
60257;SDS011;46115;44.484;11.314;2022-08-05T18:27:00;7.55;;;2.30;;
60257;SDS011;46115;44.484;11.314;2022-08-05T18:31:04;4.38;;;2.10;;
60257;SDS011;46115;44.484;11.314;2022-08-05T18:35:07;5.40;;;2.13;;
60257;SDS011;46115;44.484;11.314;2022-08-05T18:39:09;5.10;;;2.38;;
60257;SDS011;46115;44.484;11.314;2022-08-05T18:43:11;4.95;;;2.17;;
60257;SDS011;46115;44.484;11.314;2022-08-05T18:47:15;4.97;;;2.20;;
60257;SDS011;46115;44.484;11.314;2022-08-05T18:51:18;5.75;;;2.30;;
60257;SDS011;46115;44.484;11.314;2022-08-05T18:55:38;5.00;;;2.30;;
60257;SDS011;46115;44.484;11.314;2022-08-05T18:59:41;3.00;;;2.03;;
60257;SDS011;46115;44.484;11.314;2022-08-05T19:03:45;5.60;;;2.35;;
60257;SDS011;46115;44.484;11.314;2022-08-05T19:07:48;5.60;;;2.40;;
60257;SDS011;46115;44.484;11.314;2022-08-05T19:11:52;9.15;;;2.40;;
60257;SDS011;46115;44.484;11.314;2022-08-05T19:15:54;5.53;;;2.13;;
60257;SDS011;46115;44.484;11.314;2022-08-05T19:19:58;5.28;;;2.38;;
60257;SDS011;46115;44.484;11.314;2022-08-05T22:06:08;6.53;;;2.85;;
60257;SDS011;46115;44.484;11.314;2022-08-05T22:10:10;3.35;;;2.42;;
60257;SDS011;46115;44.484;11.314;2022-08-05T22:14:14;6.70;;;2.50;;
60257;SDS011;46115;44.484;11.314;2022-08-05T22:18:17;4.90;;;2.85;;
60257;SDS011;46115;44.484;11.314;2022-08-05T22:22:21;6.72;;;2.53;;
60257;SDS011;46115;44.484;11.314;2022-08-05T22:26:24;6.63;;;2.70;;
60257;SDS011;46115;44.484;11.314;2022-08-05T22:30:43;6.75;;;2.80;;
60257;SDS011;46115;44.484;11.314;2022-08-05T22:34:46;7.05;;;2.83;;
60257;SDS011;46115;44.484;11.314;2022-08-05T22:38:50;3.10;;;2.30;;
60257;SDS011;46115;44.484;11.314;2022-08-05T22:42:53;3.15;;;2.65;;
60257;SDS011;46115;44.484;11.314;2022-08-05T22:46:55;3.15;;;2.50;;
60257;SDS011;46115;44.484;11.314;2022-08-05T22:50:58;5.32;;;2.40;;
60257;SDS011;46115;44.484;11.314;2022-08-05T22:55:03;3.72;;;2.28;;
60257;SDS011;46115;44.484;11.314;2022-08-05T22:59:06;2.72;;;2.40;;
60257;SDS011;46115;44.484;11.314;2022-08-05T23:03:09;4.97;;;2.25;;
60257;SDS011;46115;44.484;11.314;2022-08-05T23:07:12;6.07;;;2.50;;
60257;SDS011;46115;44.484;11.314;2022-08-05T23:11:15;3.05;;;2.38;;
60257;SDS011;46115;44.484;11.314;2022-08-05T23:15:18;4.03;;;2.40;;
60257;SDS011;46115;44.484;11.314;2022-08-05T23:19:21;4.45;;;2.50;;
60257;SDS011;46115;44.484;11.314;2022-08-05T23:23:23;4.70;;;2.40;;
60257;SDS011;46115;44.484;11.314;2022-08-05T23:27:27;4.85;;;2.80;;
60257;SDS011;46115;44.484;11.314;2022-08-05T23:31:29;4.35;;;2.15;;
60257;SDS011;46115;44.484;11.314;2022-08-05T23:35:32;5.78;;;2.30;;
60257;SDS011;46115;44.484;11.314;2022-08-05T23:39:34;6.88;;;2.50;;
60257;SDS011;46115;44.484;11.314;2022-08-05T23:43:38;3.67;;;2.47;;
60257;SDS011;46115;44.484;11.314;2022-08-05T23:47:41;4.22;;;2.35;;
60257;SDS011;46115;44.484;11.314;2022-08-05T23:51:44;4.10;;;2.20;;
60257;SDS011;46115;44.484;11.314;2022-08-05T23:56:04;3.65;;;2.50;;
